Strona główna
METAR-TAF:

METAR-TAF

Lotnisko :

Morgantown, Wirginia Zachodnia, Stany Zjednoczone

Szerokość geograficzna: 39-38-58N, Długość geograficzna: 079-55-16W, wysokość: 380 m

Aktualna obserwacja pogody

Raport powstał 41 minut temu, godzina 11:09 UTC
Wiatr 4 kt od południowo-południowy zachód
Temperatura 20°C
Wilgotność 94%
Ciśnienie 1014 hPa
Widzialność: 16.1 km
Zachmurzenie całkowite na wysokości 1300 ft

METAR: KMGW 251109Z 21004KT 10SM OVC013 20/19 A2993 RMK AO2 T02000189

czas: 07:50 (11:50 UTC)

Prognoza

Raport powstał 23 minut temu, godzina 11:27 UTC
Prognoza ważna od 25 godzina 12 UTC do 26 godzina 12 UTC
Wiatr 8 kt od zachodnio-południowy zachód
Widzialność: 10 km
Przerywane chmury na wysokości 1500 ft
Od 25 godzina 1500 UTC
Wiatr 10 kt od zachód w porywach dochodzący do 18 kt
Widzialność: 10 km
Rozproszone chmury na wysokości 3500 ft
Od 26 godzina 0100 UTC
Wiatr 5 kt z kierunków zmiennych
Widzialność: 10 km
bezchmurnie

TAF: KMGW 251127Z 2512/2612 24008KT P6SM BKN015 FM251500 26010G18KT P6SM SCT035 FM260100 VRB05KT P6SM SKC

Obserwacja i prognoza pogody dla ponad 4000 lotnisk (raport METAR i TAF).

Dostępne stacje oznaczono żółtymi i czerwonymi punktami na mapie.

Najedź kursorem aby zobaczyć nazwę stacji.

Kliknij aby zobaczyć obserwacje i prognozy pogody.

Aby zmienić mapę: kliknij na zielony przycisk z czarnym krzyżykiem, aby powiększyć; na zielony przycisk z myślnikiem, aby pomniejszyć; na zielone strzałki, aby przejść do map sąsiednich.


METAR-TAF: